Northport, MI (49670)

9:44 AM EDT on October 31, 2014 (GMT -0400)
KMISUTTO2 | Change Station
CLOSE
Current Station
Personal Weather Station
Location: Suttons Bay, MI
Elevation: 797 ft
Nearby Weather Stations
Active Advisory: Wind Advisory

Elev 797 ft 45.01 °N, 85.64 °W | Updated 4 minutes ago

Snow
Snow
33.5 °F
Feels Like 28 °F
N
6.0
Wind Variable Wind from NNW
Gusts 6.0 mph

Today
High -- | Low -- °F
--% Chance of Precip.
Yesterday
High -- | Low -- °F
Precip. -- in
8:19 AM 6:31 PM
First Quarter, 55% visible
Pressure 30.15 in
Visibility 2.5 miles
Clouds Scattered Clouds 1200 ft
Mostly Cloudy 1900 ft
Overcast 2900 ft
Windchill 28 °F
Dew Point 31 °F
Humidity 92%
Rainfall 0.25 in
Snow Depth Not available.
UV 0 out of 12
Pollen .10 out of 12
Air Quality Not available.
Flu Activity Not available.
METAR KCVX 311335Z AUTO 03024G32KT 2 1/2SM -SN SCT012 BKN019 OVC029 00/M01 A3015 RMK AO2 T00011010

More Conditions Fewer Conditions

Pressure 30.15 in
Visibility 2.5 miles
Clouds Scattered Clouds 1200 ft
Mostly Cloudy 1900 ft
Overcast 2900 ft
Windchill 28 °F
Dew Point 31 °F
Humidity 92%
Rainfall 0.25 in
Snow Depth Not available.
UV 0 out of 12
Pollen .10 out of 12
Air Quality Not available.
Flu Activity Not available.
METAR KCVX 311335Z AUTO 03024G32KT 2 1/2SM -SN SCT012 BKN019 OVC029 00/M01 A3015 RMK AO2 T00011010

More Conditions Fewer Conditions

Nowcast | as of 9:00 am EDT on October 31, 2014

Wind Advisory in effect until 8 PM EDT this evening... At 10 am...rain and snow. Temperature 36. North winds 34 mph with gusts to 50 mph. At 12 PM...rain and snow. Temperature 36. North winds 32 mph with gusts to 45 mph. At 2 PM...cloudy. Chance of snow and rain. Temperature 37. North winds 30 mph. At 4 PM...cloudy. Chance of snow and rain. Temperature 37. North winds 30 mph.

×

10-Day Weather Forecast

Almanac

Astronomy

Oct. 31, 2014 Rise Set
Actual Time
Civil Twilight
Nautical Twilight
Astronomical Twilight
Moon
Length of Visible Light
Length of Day
Tomorrow will be .
, % of the Moon is Illuminated

Today's Extremes

State Highs State Lows

Community

WunderPhotos

Upload Photos

1,766,612 photos uploaded!

WunderBlogs® & News

Nearby

Air Quality

  Air Quality AQ Index Pollutant
Not available.

Snow Depth

Station Depth Elevation

Earthquake Activity

City Distance Mag. Time & Date
Minimum magnitude displayed is 2.5.

Coastal Water Temperatures

Place Temperature

Nearby Weather Stations